createdAt,value
2022-08-16T00:02:32.373Z,99307.03
2022-08-16T00:05:00.161Z,99165.63
2022-08-16T00:07:29.806Z,99351.38
2022-08-16T00:10:02.211Z,99350.56
2022-08-16T00:12:30.722Z,99200.56
2022-08-16T00:15:05.448Z,99252.69
2022-08-16T00:17:56.290Z,99360.03
2022-08-16T00:20:31.187Z,99359.19
2022-08-16T00:23:02.461Z,99189.69
2022-08-16T00:26:33.463Z,99178.53
2022-08-16T00:28:18.826Z,99358.31
2022-08-16T00:30:45.693Z,99354.75
2022-08-16T00:33:18.685Z,99356.59
2022-08-16T00:35:50.057Z,99349.56
2022-08-16T00:38:41.142Z,99327.28
2022-08-16T00:41:05.999Z,99354.31
2022-08-16T00:43:42.852Z,99341.63
2022-08-16T00:46:34.032Z,99357.28
2022-08-16T00:48:57.158Z,99271.97
2022-08-16T00:51:25.781Z,99371.59
2022-08-16T00:53:59.445Z,99249.63
2022-08-16T00:56:56.660Z,99344.94
2022-08-16T00:59:24.992Z,99330.44
2022-08-16T01:01:55.012Z,99372.00
2022-08-16T01:04:30.032Z,99313.25
2022-08-16T01:07:02.813Z,99371.03
2022-08-16T01:09:37.553Z,99211.94
2022-08-16T01:12:10.870Z,99376.25
2022-08-16T01:14:57.442Z,99391.38
2022-08-16T01:17:24.807Z,99265.03
2022-08-16T01:19:57.023Z,99382.78
2022-08-16T01:22:47.008Z,99377.53
2022-08-16T01:25:34.032Z,99373.25
2022-08-16T01:28:07.502Z,99240.81
2022-08-16T01:30:50.011Z,99372.84
2022-08-16T01:33:19.240Z,99380.03
2022-08-16T01:36:11.596Z,99387.31
2022-08-16T01:38:53.112Z,99199.16
2022-08-16T01:41:30.758Z,99381.28
2022-08-16T01:44:01.630Z,99375.13
2022-08-16T01:46:40.049Z,99260.19
2022-08-16T01:49:42.777Z,99245.66
2022-08-16T01:52:28.091Z,99340.94
2022-08-16T01:55:18.119Z,99340.34
2022-08-16T01:57:53.309Z,99397.00
2022-08-16T02:00:21.617Z,99241.94
2022-08-16T02:02:57.707Z,99376.03
2022-08-16T02:05:24.453Z,99245.53
2022-08-16T02:07:53.654Z,99343.13
2022-08-16T02:10:22.176Z,99374.34
2022-08-16T02:12:55.803Z,99246.47
2022-08-16T02:15:35.654Z,99370.97
2022-08-16T02:18:12.739Z,99369.44
2022-08-16T02:20:42.472Z,99354.03
2022-08-16T02:23:09.967Z,99326.38
2022-08-16T02:25:52.077Z,99363.53
2022-08-16T02:28:23.613Z,99353.94
2022-08-16T02:30:54.558Z,99361.97
2022-08-16T02:33:24.359Z,99328.81
2022-08-16T02:35:59.987Z,99293.78
2022-08-16T02:38:32.188Z,99192.13
2022-08-16T02:41:01.871Z,99342.53
2022-08-16T02:43:33.151Z,99359.16
2022-08-16T02:46:07.443Z,99365.41
2022-08-16T02:48:38.480Z,99329.19
2022-08-16T02:51:11.266Z,99366.50
2022-08-16T02:53:44.797Z,99366.75
2022-08-16T02:56:15.280Z,99360.75
2022-08-16T02:58:44.406Z,99300.41
2022-08-16T03:01:25.114Z,99337.84
2022-08-16T03:04:29.001Z,99344.94
2022-08-16T03:06:56.882Z,99363.09
2022-08-16T03:09:37.296Z,99371.81
2022-08-16T03:12:05.376Z,99370.19
2022-08-16T03:14:35.369Z,99251.88
2022-08-16T03:17:04.903Z,99377.56
2022-08-16T03:19:48.828Z,99306.84
2022-08-16T03:22:28.223Z,99367.63
2022-08-16T03:25:00.835Z,99386.78
2022-08-16T03:27:36.029Z,99238.84
2022-08-16T03:30:29.264Z,99395.50
2022-08-16T03:32:59.330Z,99334.09
2022-08-16T03:35:34.676Z,99404.25
2022-08-16T03:38:33.092Z,99319.31
2022-08-16T03:41:05.435Z,99408.63
2022-08-16T03:43:54.651Z,99412.97
2022-08-16T03:46:47.861Z,99424.38
2022-08-16T03:49:13.453Z,99426.34
2022-08-16T03:51:43.937Z,99302.66
2022-08-16T03:54:20.317Z,99324.38
2022-08-16T03:56:56.844Z,99393.34
2022-08-16T03:59:24.812Z,99418.94
2022-08-16T04:01:56.757Z,99419.69
2022-08-16T04:04:33.302Z,99423.03
2022-08-16T04:07:04.264Z,99432.47
2022-08-16T04:09:38.791Z,99426.97
2022-08-16T04:12:53.742Z,99400.00
2022-08-16T04:15:07.994Z,99424.16
2022-08-16T04:17:42.177Z,99266.84
2022-08-16T04:20:31.204Z,99386.03
2022-08-16T04:22:59.184Z,99430.06
2022-08-16T04:25:29.166Z,99427.28
2022-08-16T04:27:56.910Z,99434.16
2022-08-16T04:30:32.478Z,99430.50
2022-08-16T04:33:04.432Z,99410.09
2022-08-16T04:35:39.496Z,99428.97
2022-08-16T04:38:21.202Z,99435.13
2022-08-16T04:40:51.575Z,99413.59
2022-08-16T04:43:23.732Z,99440.44
2022-08-16T04:46:00.148Z,99435.91
2022-08-16T04:48:33.937Z,99433.19
2022-08-16T04:51:12.118Z,99409.66
2022-08-16T04:53:50.777Z,99435.16
2022-08-16T04:56:19.958Z,99413.38
2022-08-16T04:58:47.751Z,99429.47
2022-08-16T05:01:20.362Z,99306.56
2022-08-16T05:04:01.011Z,99341.00
2022-08-16T05:06:45.009Z,99424.72
2022-08-16T05:09:25.669Z,99441.38
2022-08-16T05:11:58.215Z,99277.00
2022-08-16T05:14:42.305Z,99441.88
2022-08-16T05:17:14.536Z,99440.81
2022-08-16T05:19:46.533Z,99441.47
2022-08-16T05:22:24.940Z,99454.66
2022-08-16T05:24:56.716Z,99446.69
2022-08-16T05:27:24.065Z,99333.47
2022-08-16T05:29:57.877Z,99443.09
2022-08-16T05:32:32.650Z,99430.06
2022-08-16T05:35:11.004Z,99447.09
2022-08-16T05:37:43.468Z,99450.28
2022-08-16T05:40:14.377Z,99454.22
2022-08-16T05:42:47.692Z,99452.91
2022-08-16T05:45:21.379Z,99448.25
2022-08-16T05:48:00.120Z,99418.56
2022-08-16T05:50:37.645Z,99453.63
2022-08-16T05:53:08.746Z,99453.22
2022-08-16T05:55:46.461Z,99364.56
2022-08-16T05:58:31.705Z,99442.50
2022-08-16T06:01:00.764Z,99442.78
2022-08-16T06:03:34.258Z,99368.16
2022-08-16T06:06:08.514Z,99442.16
2022-08-16T06:08:42.087Z,99446.03
2022-08-16T06:11:13.460Z,99425.81
2022-08-16T06:13:43.479Z,99413.41
2022-08-16T06:16:19.390Z,99447.66
2022-08-16T06:18:53.523Z,99378.31
2022-08-16T06:21:22.706Z,99339.06
2022-08-16T06:23:57.165Z,99406.13
2022-08-16T06:26:37.022Z,99384.00
2022-08-16T06:29:07.836Z,99451.88
2022-08-16T06:31:49.145Z,99336.97
2022-08-16T06:34:56.044Z,99383.50
2022-08-16T06:37:12.251Z,99451.13
2022-08-16T06:39:49.596Z,99453.19
2022-08-16T06:42:47.027Z,99452.53
2022-08-16T06:45:37.996Z,99438.78
2022-08-16T06:48:20.215Z,99447.09
2022-08-16T06:51:00.363Z,99447.75
2022-08-16T06:53:27.426Z,99444.81
2022-08-16T06:56:14.228Z,99444.56
2022-08-16T06:59:13.133Z,99445.06
2022-08-16T07:01:54.307Z,99417.69
2022-08-16T07:04:32.669Z,99442.38
2022-08-16T07:07:11.391Z,99425.94
2022-08-16T07:09:41.244Z,99452.38
2022-08-16T07:12:09.281Z,99454.72
2022-08-16T07:14:41.231Z,99456.19
2022-08-16T07:17:11.510Z,99454.81
2022-08-16T07:20:02.963Z,99454.31
2022-08-16T07:22:52.533Z,99467.59
2022-08-16T07:25:27.952Z,99413.47
2022-08-16T07:27:54.977Z,99458.34
2022-08-16T07:30:39.470Z,99450.75
2022-08-16T07:33:52.576Z,99430.88
2022-08-16T07:36:09.775Z,99180.41
2022-08-16T07:38:44.315Z,99458.19
2022-08-16T07:41:14.935Z,99462.00
2022-08-16T07:43:49.236Z,99385.84
2022-08-16T07:46:39.277Z,99459.91
2022-08-16T07:49:23.947Z,99424.00
2022-08-16T07:51:54.519Z,99479.25
2022-08-16T07:54:31.950Z,99471.34
2022-08-16T07:57:03.582Z,99472.31
2022-08-16T07:59:42.685Z,99354.00
2022-08-16T08:02:20.437Z,99460.59
2022-08-16T08:04:51.937Z,99472.06
2022-08-16T08:07:19.227Z,99466.03
2022-08-16T08:09:49.243Z,99368.03
2022-08-16T08:12:32.221Z,99465.06
2022-08-16T08:15:11.520Z,99362.22
2022-08-16T08:17:44.148Z,99471.66
2022-08-16T08:20:28.755Z,99404.78
2022-08-16T08:23:01.995Z,99480.63
2022-08-16T08:25:53.642Z,99365.13
2022-08-16T08:28:23.995Z,99470.78
2022-08-16T08:31:04.308Z,99483.06
2022-08-16T08:33:35.531Z,99485.22
2022-08-16T08:36:11.523Z,99489.31
2022-08-16T08:38:52.375Z,99475.28
2022-08-16T08:41:28.467Z,99446.03
2022-08-16T08:43:57.496Z,99309.94
2022-08-16T08:46:26.179Z,99330.22
2022-08-16T08:48:59.886Z,99474.09
2022-08-16T08:51:38.373Z,99332.47
2022-08-16T08:54:20.479Z,99465.22
2022-08-16T08:56:52.382Z,99419.22
2022-08-16T08:59:50.837Z,99464.91
2022-08-16T09:02:20.109Z,99427.44
2022-08-16T09:04:57.250Z,99360.47
2022-08-16T09:07:28.196Z,99369.34
2022-08-16T09:10:00.946Z,99459.91
2022-08-16T09:12:37.204Z,99438.78
2022-08-16T09:15:10.034Z,99402.81
2022-08-16T09:17:51.830Z,99460.75
2022-08-16T09:20:25.539Z,99461.25
2022-08-16T09:22:54.479Z,99341.84
2022-08-16T09:25:33.931Z,99451.22
2022-08-16T09:28:09.493Z,99312.06
2022-08-16T09:31:04.997Z,99389.72
2022-08-16T09:33:37.050Z,99438.91
2022-08-16T09:36:05.508Z,99440.47
2022-08-16T09:38:44.029Z,99422.22
2022-08-16T09:41:14.916Z,99371.69
2022-08-16T09:43:57.977Z,99443.00
2022-08-16T09:46:44.496Z,99446.63
2022-08-16T09:49:14.281Z,99440.00
2022-08-16T09:51:42.537Z,99445.63
2022-08-16T09:54:16.604Z,99443.66
2022-08-16T09:56:51.619Z,99444.28
2022-08-16T09:59:21.191Z,99395.88
2022-08-16T10:01:51.970Z,99429.84
2022-08-16T10:04:29.868Z,99441.59
2022-08-16T10:07:02.430Z,99406.91
2022-08-16T10:09:53.794Z,99435.53
2022-08-16T10:12:45.494Z,99271.91
2022-08-16T10:15:21.962Z,99283.31
2022-08-16T10:18:00.770Z,99367.41
2022-08-16T10:20:33.966Z,99365.72
2022-08-16T10:23:06.962Z,99313.59
2022-08-16T10:27:20.022Z,99315.31
2022-08-16T10:28:40.310Z,99425.69
2022-08-16T10:31:16.979Z,99421.75
2022-08-16T10:34:01.540Z,99431.78
2022-08-16T10:36:39.132Z,99428.34
2022-08-16T10:39:08.508Z,99362.16
2022-08-16T10:41:36.111Z,99423.72
2022-08-16T10:44:09.666Z,99426.81
2022-08-16T10:46:41.737Z,99390.09
2022-08-16T10:49:16.794Z,99421.34
2022-08-16T10:52:02.364Z,99283.13
2022-08-16T10:54:31.545Z,99352.97
2022-08-16T10:57:00.769Z,99366.72
2022-08-16T10:59:39.222Z,99264.34
2022-08-16T11:02:59.079Z,99410.31
2022-08-16T11:05:11.523Z,99402.97
2022-08-16T11:07:51.464Z,99405.41
2022-08-16T11:13:58.138Z,99401.78
2022-08-16T11:17:02.262Z,99391.38
2022-08-16T11:19:06.206Z,99417.97
2022-08-16T11:24:39.205Z,99417.72
2022-08-16T11:27:32.508Z,99414.66
2022-08-16T11:29:56.690Z,99426.56
2022-08-16T11:32:31.847Z,99426.31
2022-08-16T11:35:10.936Z,99435.28
2022-08-16T11:40:52.602Z,99429.22
2022-08-16T11:43:26.395Z,99444.03
2022-08-16T11:45:55.171Z,99452.31
2022-08-16T11:48:33.548Z,99239.44
2022-08-16T11:51:01.567Z,99441.22
2022-08-16T11:53:29.356Z,99449.06
2022-08-16T11:56:03.079Z,99333.22
2022-08-16T11:58:34.001Z,99457.16
2022-08-16T12:01:03.314Z,99459.59
2022-08-16T12:03:35.236Z,99463.19
2022-08-16T12:06:24.945Z,99452.31
2022-08-16T12:09:00.892Z,99445.81
2022-08-16T12:11:33.227Z,99450.38
2022-08-16T12:14:05.015Z,99442.00
2022-08-16T12:16:34.597Z,99446.56
2022-08-16T12:19:07.404Z,99455.94
2022-08-16T12:21:58.569Z,99444.78
2022-08-16T12:24:29.370Z,99435.63
2022-08-16T12:27:00.182Z,99367.69
2022-08-16T12:29:29.422Z,99443.72
2022-08-16T12:32:01.382Z,99446.47
2022-08-16T12:34:50.578Z,99445.63
2022-08-16T12:37:21.866Z,99371.50
2022-08-16T12:39:54.934Z,99429.31
2022-08-16T12:42:35.491Z,99298.72
2022-08-16T12:45:09.571Z,99442.41
2022-08-16T12:48:22.205Z,99311.47
2022-08-16T12:50:49.255Z,99370.31
2022-08-16T12:53:20.642Z,99426.53
2022-08-16T12:55:48.190Z,99427.28
2022-08-16T12:58:48.733Z,99433.38
2022-08-16T13:01:02.838Z,99417.47
2022-08-16T13:03:39.645Z,99342.00
2022-08-16T13:06:07.872Z,99319.59
2022-08-16T13:08:34.620Z,99245.38
2022-08-16T13:11:04.589Z,99415.25
2022-08-16T13:13:37.132Z,99416.63
2022-08-16T13:16:15.356Z,99380.19
2022-08-16T13:18:48.412Z,99367.81
2022-08-16T13:21:23.451Z,99348.25
2022-08-16T13:23:55.475Z,99399.41
2022-08-16T13:26:26.223Z,99394.59
2022-08-16T13:28:55.853Z,99272.75
2022-08-16T13:31:24.111Z,99108.84
2022-08-16T13:33:51.941Z,99321.84
2022-08-16T13:36:47.847Z,99386.78
2022-08-16T13:39:18.058Z,99207.50
2022-08-16T13:41:53.522Z,99251.50
2022-08-16T13:44:21.733Z,99360.88
2022-08-16T13:46:48.579Z,99363.44
2022-08-16T13:49:17.573Z,99348.41
2022-08-16T13:51:49.926Z,99301.69
2022-08-16T13:56:49.476Z,99375.28
2022-08-16T13:59:21.144Z,99380.72
2022-08-16T14:02:02.641Z,99372.47
2022-08-16T14:04:33.445Z,99373.66
2022-08-16T14:07:02.039Z,99359.91
2022-08-16T14:09:31.972Z,99374.34
2022-08-16T14:12:09.863Z,99357.44
2022-08-16T14:14:45.376Z,99378.38
2022-08-16T14:17:16.531Z,99385.53
2022-08-16T14:19:44.806Z,99326.16
2022-08-16T14:22:30.449Z,99267.47
2022-08-16T14:25:00.415Z,99296.63
2022-08-16T14:27:29.577Z,99381.59
2022-08-16T14:29:59.959Z,99265.47
2022-08-16T14:32:33.105Z,99231.19
2022-08-16T14:35:04.632Z,99381.91
2022-08-16T14:37:34.972Z,99385.34
2022-08-16T14:40:03.357Z,99231.31
2022-08-16T14:42:30.422Z,99401.22
2022-08-16T14:45:02.810Z,99315.78
2022-08-16T14:47:34.945Z,99407.88
2022-08-16T14:50:02.635Z,99323.06
2022-08-16T14:52:53.998Z,99385.44
2022-08-16T14:55:16.537Z,99226.13
2022-08-16T14:57:46.040Z,99425.34
2022-08-16T15:00:17.996Z,99426.94
2022-08-16T15:02:47.471Z,99330.13
2022-08-16T15:05:20.424Z,99414.69
2022-08-16T15:07:52.908Z,99383.31
2022-08-16T15:10:24.381Z,99338.53
2022-08-16T15:12:56.214Z,99393.53
2022-08-16T15:15:26.563Z,99388.69
2022-08-16T15:17:56.566Z,99212.06
2022-08-16T15:20:32.312Z,99438.44
2022-08-16T15:23:01.559Z,99297.69
2022-08-16T15:25:34.456Z,99426.00
2022-08-16T15:28:23.516Z,99424.28
2022-08-16T15:30:59.806Z,99415.94
2022-08-16T15:33:28.095Z,99413.44
2022-08-16T15:35:55.218Z,99413.25
2022-08-16T15:38:54.863Z,99349.16
2022-08-16T15:41:53.905Z,99417.84
2022-08-16T15:44:23.777Z,99284.09
2022-08-16T15:46:58.447Z,99399.13
2022-08-16T15:49:37.849Z,99442.75
2022-08-16T15:52:29.031Z,99436.00
2022-08-16T15:54:57.794Z,99374.00
2022-08-16T15:57:28.051Z,99349.16
2022-08-16T16:00:04.908Z,99428.88
2022-08-16T16:02:43.875Z,99262.06
2022-08-16T16:05:14.066Z,99420.00
2022-08-16T16:07:55.510Z,99416.13
2022-08-16T16:10:28.359Z,99422.66
2022-08-16T16:13:00.483Z,99377.09
2022-08-16T16:15:32.380Z,99376.22
2022-08-16T16:17:59.138Z,99413.44
2022-08-16T16:20:32.920Z,99317.13
2022-08-16T16:23:10.393Z,99427.16
2022-08-16T16:25:40.012Z,99426.88
2022-08-16T16:29:05.012Z,99430.34
2022-08-16T16:31:04.777Z,99431.38
2022-08-16T16:33:38.426Z,99429.28
2022-08-16T16:36:07.770Z,99295.47
2022-08-16T16:38:39.153Z,99436.19
2022-08-16T16:41:14.422Z,99358.53
2022-08-16T16:43:45.102Z,99366.75
2022-08-16T16:46:40.616Z,99430.09
2022-08-16T16:49:06.825Z,99321.44
2022-08-16T16:51:40.375Z,99178.16
2022-08-16T16:54:09.329Z,99437.47
2022-08-16T16:56:49.533Z,99458.94
2022-08-16T16:59:18.251Z,99476.81
2022-08-16T17:01:59.900Z,99482.53
2022-08-16T17:04:37.466Z,99344.47
2022-08-16T17:07:10.657Z,99465.81
2022-08-16T17:09:40.146Z,99469.53
2022-08-16T17:12:08.906Z,99369.50
2022-08-16T17:14:38.504Z,99479.31
2022-08-16T17:17:11.704Z,99484.28
2022-08-16T17:19:41.779Z,99493.75
2022-08-16T17:22:16.065Z,99490.75
2022-08-16T17:24:50.369Z,99423.78
2022-08-16T17:27:33.126Z,99471.22
2022-08-16T17:30:16.082Z,99498.63
2022-08-16T17:32:48.789Z,99508.41
2022-08-16T17:35:21.490Z,99490.72
2022-08-16T17:37:51.442Z,99448.09
2022-08-16T17:40:34.001Z,99373.94
2022-08-16T17:43:10.294Z,99437.91
2022-08-16T17:45:39.347Z,99413.75
2022-08-16T17:48:11.145Z,99520.53
2022-08-16T17:50:38.763Z,99535.22
2022-08-16T17:53:06.621Z,99475.28
2022-08-16T17:55:39.091Z,99544.63
2022-08-16T17:58:19.799Z,99418.94
2022-08-16T18:00:54.841Z,99545.31
2022-08-16T18:03:40.812Z,99545.84
2022-08-16T18:06:16.716Z,99477.44
2022-08-16T18:08:43.653Z,99559.03
2022-08-16T18:11:12.089Z,99473.22
2022-08-16T18:13:45.119Z,99556.75
2022-08-16T18:16:17.083Z,99548.88
2022-08-16T18:18:46.348Z,99442.31
2022-08-16T18:21:33.172Z,99550.69
2022-08-16T18:24:03.120Z,99471.66
2022-08-16T18:26:30.079Z,99555.38
2022-08-16T18:28:59.853Z,99556.50
2022-08-16T18:31:26.760Z,99498.84
2022-08-16T18:33:55.860Z,99557.44
2022-08-16T18:36:24.499Z,99530.69
2022-08-16T18:38:52.285Z,99555.94
2022-08-16T18:41:20.161Z,99394.28
2022-08-16T18:44:22.346Z,99490.84
2022-08-16T18:46:33.978Z,99524.81
2022-08-16T18:49:03.028Z,99557.16
2022-08-16T18:51:31.677Z,99555.63
2022-08-16T18:53:58.475Z,99555.06
2022-08-16T18:56:55.080Z,99561.59
2022-08-16T18:59:15.110Z,99555.06
2022-08-16T19:01:41.897Z,99559.88
2022-08-16T19:04:55.963Z,99412.75
2022-08-16T19:06:55.887Z,99564.91
2022-08-16T19:09:22.996Z,99512.00
2022-08-16T19:11:52.175Z,99552.75
2022-08-16T19:14:29.979Z,99554.69
2022-08-16T19:16:57.460Z,99560.16
2022-08-16T19:19:24.219Z,99530.63
2022-08-16T19:21:53.643Z,99548.06
2022-08-16T19:24:23.237Z,99532.78
2022-08-16T19:26:59.167Z,99486.59
2022-08-16T19:29:29.094Z,99477.56
2022-08-16T19:31:56.263Z,99558.94
2022-08-16T19:34:23.204Z,99482.44
2022-08-16T19:36:50.107Z,99562.88
2022-08-16T19:39:19.900Z,99566.59
2022-08-16T19:41:53.182Z,99545.22
2022-08-16T19:44:22.668Z,99548.66
2022-08-16T19:46:49.867Z,99567.94
2022-08-16T19:49:17.224Z,99481.69
2022-08-16T19:51:45.465Z,99550.25
2022-08-16T19:54:15.067Z,99575.19
2022-08-16T19:56:44.087Z,99571.88
2022-08-16T19:59:20.439Z,99581.75
2022-08-16T20:01:51.179Z,99518.53
2022-08-16T20:04:22.840Z,99573.16
2022-08-16T20:06:50.867Z,99549.22
2022-08-16T20:09:19.590Z,99439.91
2022-08-16T20:11:47.849Z,99579.25
2022-08-16T20:14:24.324Z,99545.63
2022-08-16T20:16:56.943Z,99551.19
2022-08-16T20:19:25.146Z,99546.84
2022-08-16T20:21:56.592Z,99584.53
2022-08-16T20:24:34.784Z,99512.78
2022-08-16T20:27:05.330Z,99584.88
2022-08-16T20:29:32.129Z,99513.25
2022-08-16T20:31:59.043Z,99470.09
2022-08-16T20:34:26.280Z,99506.59
2022-08-16T20:36:57.387Z,99582.78
2022-08-16T20:39:27.530Z,99555.41
2022-08-16T20:41:54.361Z,99554.84
2022-08-16T20:44:22.955Z,99585.22
2022-08-16T20:46:52.876Z,99590.66
2022-08-16T20:49:19.561Z,99506.03
2022-08-16T20:51:50.758Z,99591.03
2022-08-16T20:54:20.442Z,99509.94
2022-08-16T20:56:50.562Z,99503.25
2022-08-16T20:59:17.580Z,99414.34
2022-08-16T21:01:50.356Z,99586.81
2022-08-16T21:04:25.286Z,99599.94
2022-08-16T21:06:56.254Z,99546.47
2022-08-16T21:09:31.342Z,99604.56
2022-08-16T21:12:00.986Z,99601.00
2022-08-16T21:14:33.916Z,99580.47
2022-08-16T21:17:04.261Z,99496.41
2022-08-16T21:19:31.163Z,99498.16
2022-08-16T21:21:57.892Z,99521.97
2022-08-16T21:24:24.901Z,99595.06
2022-08-16T21:26:56.009Z,99619.59
2022-08-16T21:29:30.596Z,99620.66
2022-08-16T21:32:12.799Z,99568.81
2022-08-16T21:34:39.947Z,99608.66
2022-08-16T21:37:11.520Z,99622.66
2022-08-16T21:39:38.868Z,99613.09
2022-08-16T21:42:19.117Z,99608.75
2022-08-16T21:44:48.798Z,99616.03
2022-08-16T21:47:15.582Z,99622.28
2022-08-16T21:49:42.873Z,99621.34
2022-08-16T21:52:10.139Z,99537.66
2022-08-16T21:54:52.719Z,99628.72
2022-08-16T21:57:26.365Z,99603.50
2022-08-16T22:00:06.024Z,99594.97
2022-08-16T22:02:41.644Z,99616.66
2022-08-16T22:05:08.609Z,99626.44
2022-08-16T22:07:37.779Z,99624.69
2022-08-16T22:11:06.347Z,99297.25
2022-08-16T22:12:55.011Z,99535.66
2022-08-16T22:15:25.587Z,99472.16
2022-08-16T22:17:58.307Z,99628.22
2022-08-16T22:20:27.729Z,99628.31
2022-08-16T22:23:25.060Z,99636.31
2022-08-16T22:25:54.678Z,99626.09
2022-08-16T22:28:24.349Z,99503.16
2022-08-16T22:30:51.715Z,99637.63
2022-08-16T22:33:24.758Z,99636.78
2022-08-16T22:35:54.241Z,99634.97
2022-08-16T22:38:54.700Z,99640.31
2022-08-16T22:41:14.573Z,99639.44
2022-08-16T22:43:44.887Z,99639.53
2022-08-16T22:46:14.113Z,99580.28
2022-08-16T22:48:42.783Z,99551.28
2022-08-16T22:51:10.143Z,99549.50
2022-08-16T22:53:37.360Z,99621.44
2022-08-16T22:56:04.841Z,99647.66
2022-08-16T22:58:34.183Z,99534.97
2022-08-16T23:01:08.415Z,99633.81
2022-08-16T23:03:35.754Z,99594.97
2022-08-16T23:06:06.063Z,99632.13
2022-08-16T23:08:39.272Z,99509.97
2022-08-16T23:11:22.739Z,99629.63
2022-08-16T23:13:54.807Z,99579.53
2022-08-16T23:16:33.397Z,99486.84
2022-08-16T23:19:07.541Z,99538.13
2022-08-16T23:21:35.044Z,99636.22
2022-08-16T23:24:02.683Z,99557.56
2022-08-16T23:26:44.722Z,99632.75
2022-08-16T23:29:21.967Z,99481.91
2022-08-16T23:31:58.430Z,99479.16
2022-08-16T23:34:26.846Z,99618.72
2022-08-16T23:36:54.091Z,99624.09
2022-08-16T23:39:20.976Z,99468.19
2022-08-16T23:41:51.131Z,99501.91
2022-08-16T23:44:55.470Z,99626.00
2022-08-16T23:47:06.140Z,99631.34
2022-08-16T23:49:59.358Z,99535.13
2022-08-16T23:52:42.336Z,99639.44
2022-08-16T23:55:08.975Z,99601.50
2022-08-16T23:57:40.414Z,99617.91
